Time;durP1;ratioP1;P1;durP2;ratioP2;P2;SDS_P1;SDS_P2;PMS_P1;PMS_P2;Temp;Humidity;BMP_temperature;BMP_pressure;BME280_temperature;BME280_humidity;BME280_pressure;Samples;Min_cycle;Max_cycle;Signal;HPM_P1;HPM_P2
2023/04/30 00:04:17;;;;;;;16.70;12.23;;;6.90;99.90;;;;;;2618169;54;20162;-81
2023/04/30 00:10:05;;;;;;;17.40;12.37;;;6.90;99.90;;;;;;2618484;54;20230;-79
2023/04/30 00:15:53;;;;;;;17.90;13.27;;;6.70;99.90;;;;;;2620018;39;20865;-80
2023/04/30 00:21:41;;;;;;;17.10;12.27;;;6.90;99.90;;;;;;2618628;54;20130;-80
2023/04/30 00:27:30;;;;;;;15.83;12.60;;;6.80;99.90;;;;;;2619748;54;20122;-80
2023/04/30 00:33:18;;;;;;;17.40;14.47;;;6.50;99.90;;;;;;2614178;54;21225;-78
2023/04/30 00:36:32;;;;;;;16.50;12.87;;;6.40;99.90;;;;;;2616133;46;20427;-80
2023/04/30 00:38:58;;;;;;;16.37;13.73;;;6.30;99.90;;;;;;2615056;54;20420;-78
2023/04/30 00:44:45;;;;;;;18.10;13.83;;;6.30;99.90;;;;;;2614904;54;20823;-79
2023/04/30 00:50:35;;;;;;;18.27;13.40;;;6.20;99.90;;;;;;2619158;54;20247;-79
2023/04/30 00:56:25;;;;;;;15.87;14.17;;;6.00;99.90;;;;;;2619419;54;20487;-79
2023/04/30 01:02:14;;;;;;;20.87;15.60;;;5.60;99.90;;;;;;2613844;54;20419;-78
2023/04/30 01:08:02;;;;;;;17.23;15.07;;;5.60;99.90;;;;;;2614793;54;20395;-77
2023/04/30 01:20:36;;;;;;;22.93;14.23;;;5.40;99.90;;;;;;2617157;54;20512;-80
2023/04/30 01:26:27;;;;;;;20.10;14.37;;;5.30;99.90;;;;;;2616699;54;20887;-80
2023/04/30 01:32:15;;;;;;;19.67;15.93;;;5.20;99.90;;;;;;2615958;54;20367;-79
2023/04/30 01:41:36;;;;;;;19.33;15.63;;;5.10;99.90;;;;;;2617949;54;20544;-79
2023/04/30 02:00:13;;;;;;;37.97;23.63;;;4.90;99.90;;;;;;2617092;54;20395;-80
2023/04/30 02:06:01;;;;;;;35.37;21.90;;;4.80;99.90;;;;;;2617450;54;20511;-80
2023/04/30 02:11:50;;;;;;;42.93;24.40;;;4.70;99.90;;;;;;2618019;54;20150;-80
2023/04/30 02:17:38;;;;;;;40.40;25.33;;;4.80;99.90;;;;;;2617463;54;20447;-80
2023/04/30 02:23:26;;;;;;;39.60;24.83;;;4.90;99.90;;;;;;2617003;54;20342;-79
2023/04/30 02:29:14;;;;;;;36.67;25.20;;;4.70;99.90;;;;;;2616298;54;20153;-81
2023/04/30 02:35:01;;;;;;;42.97;26.87;;;4.70;99.90;;;;;;2616306;54;20146;-79
2023/04/30 02:44:11;;;;;;;30.57;20.93;;;5.00;99.90;;;;;;2617969;54;20466;-80
2023/04/30 02:49:59;;;;;;;27.50;20.63;;;4.80;99.90;;;;;;2618531;54;20141;-80
2023/04/30 02:55:48;;;;;;;27.50;19.77;;;4.70;99.90;;;;;;2623977;54;20122;-81
2023/04/30 03:01:36;;;;;;;30.73;20.13;;;4.60;99.90;;;;;;2622525;54;20944;-80
2023/04/30 03:07:24;;;;;;;25.03;19.73;;;4.50;99.90;;;;;;2622473;54;20605;-80
2023/04/30 03:13:12;;;;;;;27.27;20.73;;;4.60;99.90;;;;;;2622237;54;20259;-80
2023/04/30 03:19:00;;;;;;;28.27;19.00;;;4.90;99.90;;;;;;2621844;54;20151;-80
2023/04/30 03:24:49;;;;;;;31.53;19.13;;;4.80;99.90;;;;;;2621551;54;20126;-82
2023/04/30 03:30:37;;;;;;;24.33;18.40;;;5.00;99.90;;;;;;2621685;39;20747;-79
2023/04/30 03:36:26;;;;;;;25.03;18.77;;;4.70;99.90;;;;;;2620717;54;20130;-79
2023/04/30 03:39:32;;;;;;;29.77;18.87;;;4.70;99.90;;;;;;2615380;31;20903;-79
2023/04/30 03:41:58;;;;;;;23.53;18.47;;;4.70;99.90;;;;;;2614948;47;21004;-80
2023/04/30 03:47:46;;;;;;;27.70;18.37;;;4.60;99.90;;;;;;2615688;54;20150;-80
2023/04/30 03:53:33;;;;;;;23.90;19.63;;;4.50;99.90;;;;;;2615855;54;20231;-79
2023/04/30 03:59:22;;;;;;;25.10;18.47;;;4.40;99.90;;;;;;2615562;54;20155;-78
2023/04/30 04:05:10;;;;;;;24.60;17.50;;;4.30;99.90;;;;;;2615900;54;20394;-76
2023/04/30 04:10:58;;;;;;;21.13;18.00;;;4.30;99.90;;;;;;2616939;54;20154;-76
2023/04/30 04:16:45;;;;;;;34.00;21.83;;;4.30;99.90;;;;;;2619030;54;20419;-76
2023/04/30 04:22:33;;;;;;;38.77;24.50;;;4.20;99.90;;;;;;2618795;54;20203;-75
2023/04/30 04:28:21;;;;;;;32.33;22.03;;;4.40;99.90;;;;;;2619066;54;20262;-76
2023/04/30 04:34:10;;;;;;;26.73;18.67;;;4.70;99.90;;;;;;2617405;54;20134;-75
2023/04/30 04:44:07;;;;;;;29.67;19.03;;;5.20;99.90;;;;;;2617042;54;20415;-75
2023/04/30 04:49:54;;;;;;;25.67;20.97;;;5.60;99.90;;;;;;2616535;54;20423;-76
2023/04/30 04:55:42;;;;;;;33.00;20.30;;;5.60;99.90;;;;;;2616766;39;20645;-77
2023/04/30 05:01:30;;;;;;;29.40;20.30;;;5.70;99.90;;;;;;2615672;54;20708;-76
2023/04/30 05:07:19;;;;;;;28.27;20.60;;;6.00;99.90;;;;;;2615464;54;20383;-76
2023/04/30 05:13:07;;;;;;;29.20;20.80;;;6.20;99.90;;;;;;2615599;54;20162;-76
2023/04/30 05:18:54;;;;;;;31.70;21.60;;;6.50;99.90;;;;;;2615434;39;20543;-77
2023/04/30 05:24:42;;;;;;;33.13;23.10;;;6.80;99.90;;;;;;2615416;54;20157;-78
2023/04/30 05:30:30;;;;;;;51.63;25.63;;;7.40;99.90;;;;;;2613932;54;20142;-78
2023/04/30 05:36:19;;;;;;;35.47;24.90;;;8.50;99.90;;;;;;2614816;54;20512;-78
2023/04/30 05:39:35;;;;;;;34.30;25.30;;;8.80;99.90;;;;;;2614731;39;20785;-79
2023/04/30 05:42:02;;;;;;;27.93;24.03;;;9.20;99.90;;;;;;2614726;31;20674;-78
2023/04/30 05:47:50;;;;;;;28.00;20.80;;;9.70;99.90;;;;;;2614029;54;20398;-78
2023/04/30 05:53:38;;;;;;;23.43;20.17;;;9.90;99.90;;;;;;2615491;54;20161;-77
2023/04/30 05:59:25;;;;;;;22.90;18.80;;;10.20;99.90;;;;;;2617686;54;20394;-77
2023/04/30 06:05:13;;;;;;;20.30;18.17;;;10.50;99.90;;;;;;2612932;39;20536;-78
2023/04/30 06:11:03;;;;;;;21.63;19.10;;;11.30;99.90;;;;;;2620955;39;20542;-80
2023/04/30 06:16:52;;;;;;;19.23;17.23;;;10.90;99.90;;;;;;2621171;54;20387;-81
2023/04/30 06:22:40;;;;;;;22.83;18.50;;;11.00;99.90;;;;;;2625865;54;20399;-79
2023/04/30 06:28:28;;;;;;;17.93;16.13;;;11.80;99.90;;;;;;2627275;54;20122;-79
2023/04/30 06:34:17;;;;;;;18.67;17.07;;;12.20;99.90;;;;;;2626766;54;20138;-80
2023/04/30 06:44:08;;;;;;;16.20;14.90;;;12.10;99.90;;;;;;2619735;54;20395;-80
2023/04/30 06:47:11;;;;;;;17.30;15.90;;;12.40;99.90;;;;;;2612628;47;20511;-80
2023/04/30 06:49:37;;;;;;;19.40;17.67;;;12.40;99.90;;;;;;2613694;54;20435;-79
2023/04/30 06:55:26;;;;;;;17.20;15.70;;;12.30;99.90;;;;;;2613663;54;20147;-79
2023/04/30 07:01:14;;;;;;;17.57;16.03;;;12.60;99.90;;;;;;2612505;54;20511;-80
2023/04/30 07:07:03;;;;;;;17.13;15.47;;;13.30;99.90;;;;;;2614117;54;20130;-81
2023/04/30 07:12:50;;;;;;;17.17;15.70;;;13.30;99.90;;;;;;2614712;39;20786;-81
2023/04/30 07:18:39;;;;;;;17.40;15.83;;;13.80;99.90;;;;;;2612870;54;20620;-81
2023/04/30 07:24:27;;;;;;;17.40;16.17;;;14.30;99.90;;;;;;2612404;39;20812;-82
2023/04/30 07:30:15;;;;;;;16.53;15.23;;;13.30;99.90;;;;;;2614520;54;20391;-82
2023/04/30 07:36:03;;;;;;;16.37;15.07;;;14.10;99.90;;;;;;2615464;54;20142;-81
2023/04/30 07:41:51;;;;;;;16.27;14.97;;;14.60;98.80;;;;;;2615222;54;21031;-81
2023/04/30 07:47:39;;;;;;;17.03;15.63;;;14.50;99.70;;;;;;2614858;54;20130;-81
2023/04/30 07:53:28;;;;;;;16.67;15.47;;;14.30;99.90;;;;;;2616767;54;20154;-83
2023/04/30 07:59:16;;;;;;;14.77;13.67;;;15.30;94.40;;;;;;2614834;54;20142;-81
2023/04/30 08:05:04;;;;;;;16.20;15.00;;;15.60;84.60;;;;;;2615161;54;20130;-81
2023/04/30 08:10:56;;;;;;;16.03;14.93;;;14.80;94.10;;;;;;2615342;54;20398;-81
2023/04/30 08:16:44;;;;;;;17.37;15.90;;;15.20;88.70;;;;;;2614934;54;20392;-81
2023/04/30 08:22:32;;;;;;;16.63;15.30;;;15.60;84.80;;;;;;2616049;54;20150;-81
2023/04/30 08:28:20;;;;;;;14.30;13.30;;;16.00;77.00;;;;;;2614998;54;20431;-81
2023/04/30 08:34:07;;;;;;;15.70;14.70;;;16.00;62.10;;;;;;2615231;54;20226;-81
2023/04/30 08:50:14;;;;;;;15.70;14.37;;;16.30;47.70;;;;;;2613461;54;20387;-82
2023/04/30 08:56:02;;;;;;;16.53;15.50;;;17.70;21.90;;;;;;2614432;54;20383;-79
2023/04/30 09:01:50;;;;;;;15.83;14.80;;;16.90;26.10;;;;;;2614164;39;21237;-81
2023/04/30 09:07:41;;;;;;;16.97;15.80;;;17.10;21.60;;;;;;2615212;54;20182;-82
2023/04/30 09:20:12;;;;;;;15.33;14.33;;;17.20;22.80;;;;;;2613523;54;20476;-81
2023/04/30 09:26:00;;;;;;;15.37;14.27;;;18.20;17.90;;;;;;2615404;54;20390;-82
2023/04/30 09:31:48;;;;;;;13.53;12.73;;;18.30;15.10;;;;;;2616404;54;20234;-83
2023/04/30 09:37:37;;;;;;;14.80;13.80;;;18.80;8.60;;;;;;2616183;54;20399;-81
2023/04/30 09:43:25;;;;;;;14.80;13.90;;;18.00;7.10;;;;;;2614871;54;20391;-82
2023/04/30 09:49:18;;;;;;;14.50;13.60;;;18.20;13.10;;;;;;2612833;54;20379;-81
2023/04/30 09:55:09;;;;;;;14.00;13.20;;;18.70;8.70;;;;;;2612958;54;20443;-82
2023/04/30 10:01:00;;;;;;;14.00;13.10;;;18.40;5.70;;;;;;2614367;54;20386;-82
2023/04/30 10:06:53;;;;;;;13.07;12.37;;;19.40;2.60;;;;;;2614863;54;20387;-84
2023/04/30 10:25:24;;;;;;;11.70;11.00;;;19.30;1.00;;;;;;2622183;54;20415;-81
2023/04/30 10:31:13;;;;;;;11.67;10.97;;;19.50;1.00;;;;;;2622082;54;20421;-82
2023/04/30 10:46:59;;;;;;;13.30;12.60;;;19.80;1.00;;;;;;2620702;54;20487;-82
2023/04/30 10:59:27;;;;;;;13.10;12.50;;;19.20;1.00;;;;;;2621991;54;20404;-81
2023/04/30 11:05:17;;;;;;;11.93;11.37;;;19.60;1.00;;;;;;2622827;54;20948;-80
2023/04/30 11:11:08;;;;;;;12.50;11.90;;;19.80;1.00;;;;;;2622320;54;20402;-81
2023/04/30 11:16:59;;;;;;;11.47;10.87;;;20.40;1.00;;;;;;2623781;54;20396;-82
2023/04/30 11:29:14;;;;;;;13.83;13.03;;;19.90;1.00;;;;;;2622113;54;20460;-82
2023/04/30 11:35:03;;;;;;;13.37;12.63;;;19.70;1.00;;;;;;2624047;54;20399;-82
2023/04/30 11:40:53;;;;;;;13.23;12.53;;;19.80;1.00;;;;;;2620163;54;20399;-84
2023/04/30 11:46:41;;;;;;;13.57;12.80;;;19.90;1.00;;;;;;2616499;54;20383;-83
2023/04/30 11:52:29;;;;;;;13.63;12.83;;;19.90;1.00;;;;;;2615526;54;20403;-83
2023/04/30 11:58:20;;;;;;;13.70;13.00;;;20.00;1.00;;;;;;2616779;39;20600;-81
2023/04/30 12:04:09;;;;;;;12.47;11.73;;;19.20;1.00;;;;;;2616650;54;20383;-81
2023/04/30 12:09:58;;;;;;;14.73;13.93;;;18.90;1.00;;;;;;2616892;54;20383;-83
2023/04/30 12:22:22;;;;;;;13.67;12.97;;;18.70;1.00;;;;;;2616949;54;20426;-84
2023/04/30 12:28:10;;;;;;;13.77;13.07;;;19.40;1.00;;;;;;2616507;54;20130;-83
2023/04/30 12:34:04;;;;;;;14.33;13.60;;;20.10;1.00;;;;;;2618326;54;20460;-82
2023/04/30 12:39:54;;;;;;;13.40;12.80;;;19.70;1.00;;;;;;2621649;54;20410;-83
2023/04/30 12:45:52;;;;;;;13.00;12.30;;;18.90;1.00;;;;;;2627915;54;21020;-82
2023/04/30 12:51:42;;;;;;;13.37;12.77;;;18.60;1.00;;;;;;2627342;54;20499;-80
2023/04/30 12:57:30;;;;;;;13.40;12.43;;;18.30;1.00;;;;;;2623923;54;20426;-80
2023/04/30 13:03:20;;;;;;;14.33;13.60;;;19.20;1.00;;;;;;2623799;54;20126;-79
2023/04/30 13:09:08;;;;;;;11.97;11.47;;;19.60;1.00;;;;;;2620764;54;20390;-81
2023/04/30 13:14:56;;;;;;;12.70;12.00;;;20.00;1.00;;;;;;2621034;54;20170;-81
2023/04/30 13:20:44;;;;;;;11.97;11.30;;;20.30;1.00;;;;;;2625145;54;20122;-81
2023/04/30 13:26:32;;;;;;;12.60;12.10;;;20.60;1.00;;;;;;2624096;54;20415;-81
2023/04/30 13:32:20;;;;;;;12.17;11.57;;;21.50;1.00;;;;;;2619014;54;20675;-80
2023/04/30 13:38:09;;;;;;;13.50;12.80;;;19.60;1.00;;;;;;2618510;54;20178;-80
2023/04/30 13:44:34;;;;;;;13.47;12.77;;;19.20;1.00;;;;;;2613661;54;20422;-80
2023/04/30 13:47:22;;;;;;;13.40;12.70;;;18.70;1.00;;;;;;2611391;47;20438;-79
2023/04/30 13:53:10;;;;;;;11.70;11.10;;;19.50;1.00;;;;;;2614975;54;20484;-79
2023/04/30 13:58:59;;;;;;;11.50;11.00;;;19.50;1.00;;;;;;2611939;54;20162;-79
2023/04/30 14:04:47;;;;;;;13.87;13.17;;;20.40;1.00;;;;;;2612768;39;20771;-79
2023/04/30 14:10:34;;;;;;;12.90;12.30;;;20.40;1.00;;;;;;2613866;54;20129;-80
2023/04/30 14:16:22;;;;;;;11.53;11.03;;;19.60;1.00;;;;;;2613179;54;20659;-80
2023/04/30 14:22:10;;;;;;;12.30;11.70;;;20.50;1.00;;;;;;2612693;54;20177;-82
2023/04/30 14:27:58;;;;;;;12.57;11.87;;;20.60;1.00;;;;;;2613547;54;20242;-79
2023/04/30 14:33:48;;;;;;;12.03;11.43;;;19.50;1.00;;;;;;2614774;54;20192;-79
2023/04/30 14:39:36;;;;;;;14.40;13.30;;;19.60;1.00;;;;;;2612578;54;20387;-78
2023/04/30 14:42:55;;;;;;;12.53;11.70;;;20.40;1.00;;;;;;2613026;47;20419;-79
2023/04/30 14:45:20;;;;;;;11.70;11.20;;;19.50;1.00;;;;;;2614695;31;20810;-80
2023/04/30 14:51:08;;;;;;;11.63;11.03;;;20.20;1.00;;;;;;2614380;54;20882;-80
2023/04/30 14:56:56;;;;;;;12.80;12.20;;;20.10;1.00;;;;;;2613418;54;20122;-79
2023/04/30 15:02:44;;;;;;;12.63;12.03;;;19.50;1.00;;;;;;2614136;54;20146;-78
2023/04/30 15:08:32;;;;;;;13.50;12.80;;;19.50;1.00;;;;;;2613807;54;20526;-79
2023/04/30 15:14:20;;;;;;;12.10;11.60;;;20.10;1.00;;;;;;2610180;39;20647;-78
2023/04/30 15:20:08;;;;;;;13.07;12.27;;;20.60;1.00;;;;;;2611990;54;20975;-74
2023/04/30 15:25:56;;;;;;;12.67;11.87;;;20.20;1.00;;;;;;2614018;39;20749;-75
2023/04/30 15:31:44;;;;;;;12.40;11.80;;;20.20;1.00;;;;;;2613833;54;20419;-75
2023/04/30 15:37:33;;;;;;;12.97;12.30;;;19.90;1.00;;;;;;2612527;54;20126;-74
2023/04/30 15:47:24;;;;;;;12.43;11.80;;;19.30;1.00;;;;;;2611417;54;20379;-74
2023/04/30 15:53:11;;;;;;;13.40;12.50;;;19.30;1.00;;;;;;2614333;39;20732;-75
2023/04/30 15:58:59;;;;;;;12.30;11.70;;;19.10;1.00;;;;;;2613639;54;20122;-74
2023/04/30 16:04:47;;;;;;;13.07;12.37;;;19.00;1.00;;;;;;2614028;54;20131;-76
2023/04/30 16:10:36;;;;;;;12.37;11.67;;;19.10;1.00;;;;;;2613435;39;20574;-74
2023/04/30 16:16:23;;;;;;;12.10;11.40;;;19.60;1.00;;;;;;2613742;54;20515;-75
2023/04/30 16:22:16;;;;;;;12.13;11.30;;;19.60;1.00;;;;;;2614330;54;20271;-74
2023/04/30 16:28:04;;;;;;;12.57;11.97;;;20.00;1.00;;;;;;2613431;54;20399;-75
2023/04/30 16:33:51;;;;;;;12.80;12.00;;;19.80;1.00;;;;;;2614395;54;20435;-78
2023/04/30 16:39:39;;;;;;;12.80;12.23;;;19.70;1.00;;;;;;2613836;54;20129;-78
2023/04/30 16:42:55;;;;;;;13.90;13.10;;;19.40;1.00;;;;;;2614684;54;20423;-79
2023/04/30 16:45:21;;;;;;;13.10;12.40;;;18.90;1.00;;;;;;2613514;47;20846;-79
2023/04/30 16:51:09;;;;;;;13.23;12.50;;;18.90;1.00;;;;;;2614707;54;20122;-79
2023/04/30 16:56:57;;;;;;;13.80;13.10;;;18.70;1.00;;;;;;2611761;54;20394;-80
2023/04/30 17:02:47;;;;;;;13.00;12.37;;;18.10;1.00;;;;;;2611575;54;20131;-78
2023/04/30 17:08:36;;;;;;;13.80;13.00;;;17.60;1.00;;;;;;2614621;54;20399;-79
2023/04/30 17:14:24;;;;;;;12.00;11.50;;;17.50;1.00;;;;;;2615641;54;20423;-78
2023/04/30 17:20:13;;;;;;;12.50;11.93;;;17.20;1.00;;;;;;2615151;54;20255;-79
2023/04/30 17:26:02;;;;;;;11.87;11.30;;;17.10;1.00;;;;;;2615024;54;20410;-78
2023/04/30 17:31:50;;;;;;;12.03;11.43;;;17.00;1.00;;;;;;2615112;54;20499;-79
2023/04/30 17:37:38;;;;;;;11.00;10.40;;;16.90;1.00;;;;;;2614033;54;20134;-79
2023/04/30 17:53:52;;;;;;;12.80;12.10;;;16.50;1.00;;;;;;2614510;54;20455;-80
2023/04/30 17:59:39;;;;;;;12.03;11.43;;;16.30;1.00;;;;;;2619776;54;20183;-79
2023/04/30 18:05:27;;;;;;;12.33;11.70;;;16.10;1.00;;;;;;2619177;54;20134;-78
2023/04/30 18:11:14;;;;;;;12.60;11.80;;;16.00;1.00;;;;;;2619963;54;20154;-79
2023/04/30 18:17:01;;;;;;;13.10;12.37;;;15.70;1.00;;;;;;2619107;54;20207;-78
2023/04/30 18:22:50;;;;;;;13.37;12.40;;;15.60;1.60;;;;;;2619526;54;20163;-78
2023/04/30 18:25:54;;;;;;;13.40;12.80;;;15.50;4.00;;;;;;2619489;54;20423;-79
2023/04/30 18:28:19;;;;;;;13.70;13.00;;;15.40;5.00;;;;;;2619278;47;20432;-79
2023/04/30 18:34:09;;;;;;;13.00;12.10;;;15.20;6.70;;;;;;2615257;54;20262;-79
2023/04/30 18:39:57;;;;;;;12.73;11.90;;;15.00;8.80;;;;;;2617410;54;20476;-78
2023/04/30 18:42:56;;;;;;;12.07;11.47;;;14.80;10.10;;;;;;2616076;31;20961;-78
2023/04/30 18:45:22;;;;;;;12.23;11.20;;;14.70;11.60;;;;;;2616467;47;20750;-80
2023/04/30 18:51:10;;;;;;;13.40;12.27;;;14.60;12.60;;;;;;2614953;54;20426;-80
2023/04/30 18:56:58;;;;;;;12.70;11.90;;;14.40;15.40;;;;;;2614355;54;20174;-79
2023/04/30 19:02:45;;;;;;;13.87;12.93;;;14.30;15.70;;;;;;2614990;54;20150;-80
2023/04/30 19:08:33;;;;;;;13.07;12.30;;;14.20;16.70;;;;;;2613312;54;20139;-79
2023/04/30 19:14:21;;;;;;;11.47;10.97;;;14.00;19.10;;;;;;2614951;39;20859;-78
2023/04/30 19:20:10;;;;;;;11.97;11.37;;;13.80;22.40;;;;;;2614650;54;20187;-79
2023/04/30 19:25:59;;;;;;;16.83;13.30;;;13.70;23.40;;;;;;2613846;54;20404;-80
2023/04/30 19:31:46;;;;;;;13.40;12.70;;;13.60;26.30;;;;;;2613259;54;20387;-79
2023/04/30 19:37:35;;;;;;;13.10;12.50;;;13.40;29.80;;;;;;2613688;54;20158;-79
2023/04/30 19:47:26;;;;;;;13.83;13.00;;;13.20;33.40;;;;;;2615119;39;20822;-79
2023/04/30 19:53:15;;;;;;;14.13;13.03;;;13.20;32.70;;;;;;2613762;39;20923;-80
2023/04/30 19:59:03;;;;;;;13.37;12.67;;;13.30;32.80;;;;;;2613598;54;20430;-80
2023/04/30 20:04:50;;;;;;;15.70;14.80;;;13.10;34.80;;;;;;2615487;54;20208;-79
2023/04/30 20:10:40;;;;;;;12.87;11.97;;;12.90;40.90;;;;;;2614770;54;20826;-80
2023/04/30 20:16:28;;;;;;;14.20;13.03;;;12.70;46.20;;;;;;2614362;54;20376;-79
2023/04/30 20:22:15;;;;;;;13.03;12.23;;;12.70;49.10;;;;;;2616903;31;20602;-80
2023/04/30 20:28:03;;;;;;;14.57;13.67;;;12.50;58.10;;;;;;2614459;54;20134;-79
2023/04/30 20:33:51;;;;;;;14.33;13.47;;;12.40;59.50;;;;;;2614515;39;20595;-80
2023/04/30 20:39:39;;;;;;;14.70;13.70;;;12.30;68.80;;;;;;2611833;54;21099;-79
2023/04/30 20:42:56;;;;;;;13.67;12.70;;;12.20;69.20;;;;;;2611740;47;20400;-79
2023/04/30 20:45:22;;;;;;;14.03;13.20;;;12.10;72.30;;;;;;2611853;47;21155;-79
2023/04/30 20:51:10;;;;;;;14.50;13.50;;;12.00;81.00;;;;;;2612196;54;20379;-80
2023/04/30 20:56:58;;;;;;;14.63;13.60;;;12.10;73.90;;;;;;2612570;39;20522;-79
2023/04/30 21:02:46;;;;;;;12.73;11.93;;;12.00;73.60;;;;;;2612277;54;20246;-78
2023/04/30 21:08:34;;;;;;;14.47;13.57;;;12.00;73.00;;;;;;2613511;54;20392;-79
2023/04/30 21:14:22;;;;;;;11.90;11.30;;;11.80;81.90;;;;;;2615475;54;20166;-80
2023/04/30 21:20:10;;;;;;;14.13;12.73;;;11.60;90.00;;;;;;2614094;54;20147;-80
2023/04/30 21:25:58;;;;;;;13.30;12.40;;;11.60;90.90;;;;;;2612504;54;20387;-79
2023/04/30 21:31:46;;;;;;;13.77;12.67;;;11.40;97.30;;;;;;2612592;54;20789;-80
2023/04/30 21:37:35;;;;;;;14.23;12.83;;;11.20;99.90;;;;;;2611590;54;20137;-79
2023/04/30 21:47:25;;;;;;;14.43;13.30;;;11.10;99.90;;;;;;2612808;54;20403;-79
2023/04/30 21:53:13;;;;;;;16.00;13.83;;;11.10;99.90;;;;;;2611771;54;20391;-80
2023/04/30 21:59:01;;;;;;;13.43;12.50;;;11.10;99.90;;;;;;2611122;54;20243;-80
2023/04/30 22:04:49;;;;;;;13.73;12.70;;;11.00;99.90;;;;;;2613159;39;21573;-80
2023/04/30 22:10:36;;;;;;;13.90;12.90;;;10.90;99.90;;;;;;2611708;54;20207;-82
2023/04/30 22:16:24;;;;;;;13.27;12.27;;;10.80;99.90;;;;;;2614776;54;20158;-81
2023/04/30 22:22:12;;;;;;;12.50;11.77;;;10.70;99.90;;;;;;2610207;54;20146;-80
2023/04/30 22:28:00;;;;;;;14.07;13.03;;;10.70;99.90;;;;;;2612505;54;20825;-81
2023/04/30 22:33:48;;;;;;;14.77;13.47;;;10.60;99.90;;;;;;2612183;54;20134;-81
2023/04/30 22:39:37;;;;;;;14.80;12.10;;;10.50;99.90;;;;;;2612721;54;20422;-77
2023/04/30 22:42:56;;;;;;;13.60;12.23;;;10.50;99.90;;;;;;2611116;54;20427;-78
2023/04/30 22:45:22;;;;;;;12.53;11.80;;;10.50;99.90;;;;;;2612698;54;20435;-78
2023/04/30 22:51:10;;;;;;;13.73;12.40;;;10.40;99.90;;;;;;2611482;54;20129;-79
2023/04/30 22:56:58;;;;;;;13.47;11.80;;;10.20;99.90;;;;;;2609277;54;20133;-78
2023/04/30 23:02:46;;;;;;;13.47;12.47;;;10.00;99.90;;;;;;2611189;54;20395;-79
2023/04/30 23:08:34;;;;;;;12.17;11.03;;;9.90;99.90;;;;;;2613850;54;20115;-81
2023/04/30 23:14:21;;;;;;;12.00;11.10;;;9.90;99.90;;;;;;2616560;46;20149;-80
2023/04/30 23:20:10;;;;;;;12.60;11.50;;;10.00;99.90;;;;;;2616441;54;20150;-80
2023/04/30 23:25:59;;;;;;;12.80;11.80;;;9.80;99.90;;;;;;2621138;54;20400;-81
2023/04/30 23:31:47;;;;;;;11.67;10.77;;;9.70;99.90;;;;;;2621425;54;20355;-79
2023/04/30 23:37:35;;;;;;;11.67;10.70;;;9.50;99.90;;;;;;2621015;54;20182;-78
2023/04/30 23:47:27;;;;;;;13.30;11.93;;;9.30;99.90;;;;;;2620528;54;20376;-81
2023/04/30 23:53:15;;;;;;;12.83;11.73;;;9.20;99.90;;;;;;2622194;54;20411;-81
2023/04/30 23:59:04;;;;;;;11.50;10.67;;;9.00;99.90;;;;;;2617268;54;20434;-77
